Terminal Aerodrome Forecast
Issued by NWS Bismarck, ND

Home | Current Version | Previous Version | Text Only | Print | Product List | Glossary Off
Versions: 1 2 3 4 5 6 7 8 9 10 11 12 13 14 15 16 17 18

999
FTUS43 KBIS 092339
TAFBIS
TAF
KBIS 092339Z 1000/1024 32004KT P6SM OVC080
     FM100700 12006KT 5SM -SN OVC040
     FM100900 13007KT 2SM -SN BR OVC015
     FM101200 14007KT 4SM BR OVC015
     FM101700 04005KT P6SM BKN015=

USA.gov is the U.S. government's official web portal to all federal, state and local government web resources and services.